createdAt,value
2019-02-09T00:01:54.504Z,2.40
2019-02-09T00:04:21.154Z,1.90
2019-02-09T00:06:47.540Z,2.17
2019-02-09T00:09:14.158Z,2.13
2019-02-09T00:11:40.769Z,2.27
2019-02-09T00:14:07.520Z,2.20
2019-02-09T00:16:34.164Z,2.03
2019-02-09T00:19:00.583Z,2.10
2019-02-09T00:21:27.071Z,2.47
2019-02-09T00:23:53.691Z,2.53
2019-02-09T00:26:20.120Z,2.20
2019-02-09T00:28:46.746Z,2.33
2019-02-09T00:31:13.094Z,2.53
2019-02-09T00:33:39.693Z,1.93
2019-02-09T00:36:06.211Z,2.20
2019-02-09T00:38:32.505Z,2.47
2019-02-09T00:40:59.148Z,2.43
2019-02-09T00:43:25.780Z,2.23
2019-02-09T00:45:52.418Z,2.77
2019-02-09T00:48:18.704Z,2.20
2019-02-09T00:50:45.175Z,2.43
2019-02-09T00:53:11.754Z,2.50
2019-02-09T00:55:38.394Z,2.13
2019-02-09T00:58:05.010Z,2.27
2019-02-09T01:00:31.875Z,2.53
2019-02-09T01:02:59.196Z,2.20
2019-02-09T01:05:41.772Z,2.00
2019-02-09T01:08:08.565Z,2.00
2019-02-09T01:10:35.285Z,2.63
2019-02-09T01:13:01.774Z,2.17
2019-02-09T01:15:28.461Z,2.30
2019-02-09T01:17:55.090Z,2.10
2019-02-09T01:20:24.589Z,2.40
2019-02-09T01:22:53.520Z,2.20
2019-02-09T01:25:20.326Z,2.73
2019-02-09T01:27:46.682Z,2.37
2019-02-09T01:30:20.144Z,1.90
2019-02-09T01:32:47.026Z,1.93
2019-02-09T01:35:14.708Z,2.20
2019-02-09T01:37:41.846Z,2.10
2019-02-09T01:40:13.241Z,2.17
2019-02-09T01:42:40.063Z,2.87
2019-02-09T01:45:12.053Z,2.47
2019-02-09T01:47:38.606Z,2.00
2019-02-09T01:50:10.290Z,2.00
2019-02-09T01:52:36.821Z,1.77
2019-02-09T01:55:06.336Z,2.27
2019-02-09T01:57:32.979Z,2.33
2019-02-09T01:59:59.485Z,2.13
2019-02-09T02:02:26.022Z,2.13
2019-02-09T02:04:52.609Z,1.97
2019-02-09T02:07:19.345Z,2.03
2019-02-09T02:09:45.816Z,1.70
2019-02-09T02:12:12.815Z,1.83
2019-02-09T02:14:39.300Z,1.63
2019-02-09T02:17:06.452Z,1.63
2019-02-09T02:19:33.030Z,1.67
2019-02-09T02:21:59.523Z,1.80
2019-02-09T02:24:25.928Z,2.30
2019-02-09T02:26:52.403Z,1.57
2019-02-09T02:29:19.022Z,2.00
2019-02-09T02:31:45.512Z,1.90
2019-02-09T02:34:11.912Z,1.87
2019-02-09T02:36:38.524Z,1.90
2019-02-09T02:39:08.290Z,1.63
2019-02-09T02:41:34.885Z,1.60
2019-02-09T02:44:01.515Z,1.97
2019-02-09T02:46:27.898Z,1.60
2019-02-09T02:48:54.203Z,1.90
2019-02-09T02:51:20.607Z,1.60
2019-02-09T02:53:46.949Z,1.50
2019-02-09T02:56:13.334Z,2.00
2019-02-09T02:58:39.674Z,1.73
2019-02-09T03:01:06.261Z,1.53
2019-02-09T03:03:32.555Z,1.50
2019-02-09T03:05:58.978Z,1.53
2019-02-09T03:08:25.467Z,1.70
2019-02-09T03:10:52.115Z,1.60
2019-02-09T03:13:18.700Z,1.73
2019-02-09T03:15:45.307Z,1.60
2019-02-09T03:18:11.902Z,1.60
2019-02-09T03:20:38.396Z,1.70
2019-02-09T03:23:05.002Z,2.20
2019-02-09T03:25:33.700Z,1.70
2019-02-09T03:28:00.306Z,1.73
2019-02-09T03:30:26.910Z,1.67
2019-02-09T03:32:53.587Z,1.73
2019-02-09T03:35:20.693Z,1.80
2019-02-09T03:37:47.182Z,2.00
2019-02-09T03:40:20.080Z,1.80
2019-02-09T03:42:46.791Z,1.63
2019-02-09T03:45:21.195Z,2.00
2019-02-09T03:47:48.982Z,2.00
2019-02-09T03:50:19.681Z,1.73
2019-02-09T03:52:46.356Z,1.70
2019-02-09T03:55:13.449Z,1.60
2019-02-09T03:57:40.040Z,1.63
2019-02-09T04:00:19.828Z,1.70
2019-02-09T04:02:46.717Z,1.90
2019-02-09T04:05:13.198Z,1.70
2019-02-09T04:07:39.931Z,2.10
2019-02-09T04:10:14.160Z,2.00
2019-02-09T04:12:40.762Z,1.87
2019-02-09T04:15:17.106Z,2.13
2019-02-09T04:17:43.607Z,2.00
2019-02-09T04:20:13.619Z,1.80
2019-02-09T04:22:40.134Z,2.10
2019-02-09T04:25:10.929Z,1.80
2019-02-09T04:27:37.316Z,1.83
2019-02-09T04:30:10.506Z,1.53
2019-02-09T04:32:37.039Z,1.90
2019-02-09T04:35:06.014Z,2.00
2019-02-09T04:37:32.531Z,1.87
2019-02-09T04:39:59.075Z,2.10
2019-02-09T04:42:25.470Z,2.03
2019-02-09T04:44:52.081Z,1.87
2019-02-09T04:47:18.374Z,2.10
2019-02-09T04:49:44.766Z,2.63
2019-02-09T04:52:11.176Z,2.10
2019-02-09T04:54:37.665Z,2.30
2019-02-09T04:57:04.176Z,1.97
2019-02-09T04:59:30.927Z,1.87
2019-02-09T05:01:57.495Z,2.00
2019-02-09T05:04:24.342Z,2.07
2019-02-09T05:06:51.046Z,1.77
2019-02-09T05:09:17.562Z,1.90
2019-02-09T05:11:43.877Z,2.03
2019-02-09T05:14:10.278Z,1.90
2019-02-09T05:16:36.764Z,1.77
2019-02-09T05:19:03.520Z,2.60
2019-02-09T05:21:30.158Z,1.83
2019-02-09T05:23:56.629Z,2.20
2019-02-09T05:26:23.060Z,2.30
2019-02-09T05:28:49.427Z,1.80
2019-02-09T05:31:22.988Z,2.20
2019-02-09T05:33:44.226Z,2.13
2019-02-09T05:36:10.811Z,2.23
2019-02-09T05:38:37.279Z,2.20
2019-02-09T05:41:03.933Z,2.00
2019-02-09T05:43:30.419Z,2.30
2019-02-09T05:45:56.723Z,2.43
2019-02-09T05:48:23.022Z,1.90
2019-02-09T05:50:49.445Z,2.60
2019-02-09T05:53:15.760Z,2.60
2019-02-09T05:55:42.379Z,1.87
2019-02-09T05:58:08.691Z,1.80
2019-02-09T06:00:37.255Z,2.03
2019-02-09T06:03:03.872Z,2.30
2019-02-09T06:05:30.479Z,2.33
2019-02-09T06:07:57.173Z,1.90
2019-02-09T06:10:23.657Z,2.00
2019-02-09T06:12:50.081Z,2.00
2019-02-09T06:15:22.291Z,2.10
2019-02-09T06:17:48.920Z,2.13
2019-02-09T06:20:19.210Z,2.47
2019-02-09T06:22:45.942Z,2.50
2019-02-09T06:25:12.722Z,2.27
2019-02-09T06:27:39.249Z,2.27
2019-02-09T06:30:19.809Z,2.43
2019-02-09T06:32:46.427Z,2.10
2019-02-09T06:35:13.005Z,2.03
2019-02-09T06:37:39.445Z,1.60
2019-02-09T06:40:11.456Z,1.70
2019-02-09T06:42:37.778Z,2.67
2019-02-09T06:45:14.720Z,1.93
2019-02-09T06:47:41.383Z,2.10
2019-02-09T06:50:18.440Z,2.10
2019-02-09T06:52:44.909Z,1.97
2019-02-09T06:55:14.691Z,2.00
2019-02-09T06:57:41.207Z,2.03
2019-02-09T07:00:15.568Z,2.33
2019-02-09T07:02:42.187Z,2.77
2019-02-09T07:05:15.092Z,2.20
2019-02-09T07:07:41.757Z,3.00
2019-02-09T07:10:13.562Z,2.37
2019-02-09T07:12:40.208Z,2.50
2019-02-09T07:15:12.368Z,2.00
2019-02-09T07:17:38.919Z,2.03
2019-02-09T07:20:09.812Z,1.90
2019-02-09T07:22:36.306Z,2.20
2019-02-09T07:25:07.725Z,1.67
2019-02-09T07:27:34.417Z,1.50
2019-02-09T07:30:01.157Z,1.50
2019-02-09T07:32:27.859Z,2.10
2019-02-09T07:34:54.366Z,2.00
2019-02-09T07:37:20.779Z,1.70
2019-02-09T07:39:47.236Z,2.10
2019-02-09T07:42:13.525Z,2.10
2019-02-09T07:44:40.673Z,3.30
2019-02-09T07:47:07.189Z,2.30
2019-02-09T07:49:33.696Z,2.07
2019-02-09T07:52:00.446Z,2.13
2019-02-09T07:54:26.860Z,2.03
2019-02-09T07:56:53.417Z,2.10
2019-02-09T07:59:20.041Z,2.73
2019-02-09T08:01:46.581Z,3.00
2019-02-09T08:04:13.234Z,2.60
2019-02-09T08:06:41.278Z,2.10
2019-02-09T08:09:10.363Z,1.63
2019-02-09T08:11:37.103Z,1.80
2019-02-09T08:14:04.005Z,2.07
2019-02-09T08:16:30.623Z,2.23
2019-02-09T08:18:57.069Z,2.03
2019-02-09T08:21:23.698Z,2.23
2019-02-09T08:23:50.107Z,2.07
2019-02-09T08:26:16.674Z,2.03
2019-02-09T08:28:43.298Z,2.47
2019-02-09T08:31:09.846Z,2.67
2019-02-09T08:33:36.467Z,2.27
2019-02-09T08:36:03.567Z,2.70
2019-02-09T08:38:30.106Z,2.40
2019-02-09T08:40:56.808Z,2.73
2019-02-09T08:43:23.438Z,2.90
2019-02-09T08:45:50.058Z,2.17
2019-02-09T08:48:16.756Z,2.97
2019-02-09T08:50:57.296Z,2.87
2019-02-09T08:53:24.304Z,2.80
2019-02-09T08:55:50.926Z,2.80
2019-02-09T08:58:17.476Z,3.17
2019-02-09T09:00:44.546Z,3.13
2019-02-09T09:03:11.304Z,2.73
2019-02-09T09:05:37.948Z,3.40
2019-02-09T09:08:05.152Z,2.93
2019-02-09T09:10:31.868Z,3.53
2019-02-09T09:12:59.635Z,3.73
2019-02-09T09:15:33.736Z,2.73
2019-02-09T09:18:00.425Z,2.87
2019-02-09T09:20:52.936Z,3.23
2019-02-09T09:23:19.556Z,3.00
2019-02-09T09:25:46.218Z,2.73
2019-02-09T09:28:12.871Z,2.70
2019-02-09T09:30:39.491Z,2.50
2019-02-09T09:33:06.087Z,3.40
2019-02-09T09:35:32.745Z,3.40
2019-02-09T09:37:59.565Z,3.33
2019-02-09T09:40:34.163Z,2.80
2019-02-09T09:43:00.752Z,3.63
2019-02-09T09:45:31.629Z,3.33
2019-02-09T09:47:58.286Z,3.10
2019-02-09T09:50:27.640Z,2.80
2019-02-09T09:52:54.753Z,3.43
2019-02-09T09:55:21.375Z,3.07
2019-02-09T09:57:47.993Z,3.63
2019-02-09T10:00:20.914Z,3.47
2019-02-09T10:02:47.522Z,2.87
2019-02-09T10:05:15.157Z,3.07
2019-02-09T10:07:41.960Z,3.67
2019-02-09T10:10:13.134Z,2.93
2019-02-09T10:12:39.769Z,3.17
2019-02-09T10:15:16.831Z,3.23
2019-02-09T10:17:43.726Z,3.10
2019-02-09T10:20:17.125Z,3.30
2019-02-09T10:22:43.856Z,3.43
2019-02-09T10:25:12.709Z,3.47
2019-02-09T10:27:39.378Z,2.87
2019-02-09T10:30:17.560Z,3.23
2019-02-09T10:32:44.741Z,3.30
2019-02-09T10:35:14.431Z,3.07
2019-02-09T10:37:41.204Z,3.80
2019-02-09T10:40:15.921Z,4.00
2019-02-09T10:42:42.578Z,3.70
2019-02-09T10:45:19.425Z,3.07
2019-02-09T10:47:46.503Z,3.20
2019-02-09T10:50:23.430Z,3.60
2019-02-09T10:52:50.094Z,3.50
2019-02-09T10:55:16.851Z,3.70
2019-02-09T10:57:44.110Z,4.23
2019-02-09T11:00:16.230Z,3.30
2019-02-09T11:02:43.219Z,3.60
2019-02-09T11:05:13.165Z,3.67
2019-02-09T11:07:39.716Z,3.53
2019-02-09T11:10:11.528Z,2.80
2019-02-09T11:12:38.316Z,3.13
2019-02-09T11:15:10.241Z,4.03
2019-02-09T11:17:37.035Z,3.20
2019-02-09T11:20:17.004Z,3.43
2019-02-09T11:22:43.781Z,3.57
2019-02-09T11:25:14.391Z,3.23
2019-02-09T11:27:41.048Z,3.07
2019-02-09T11:30:15.127Z,3.50
2019-02-09T11:32:41.898Z,2.83
2019-02-09T11:35:12.258Z,3.53
2019-02-09T11:37:39.046Z,3.87
2019-02-09T11:40:10.450Z,3.47
2019-02-09T11:42:37.192Z,3.60
2019-02-09T11:45:09.323Z,3.50
2019-02-09T11:47:35.940Z,3.57
2019-02-09T11:50:07.314Z,3.70
2019-02-09T11:52:34.135Z,3.03
2019-02-09T11:55:00.678Z,3.93
2019-02-09T11:57:27.251Z,3.50
2019-02-09T11:59:53.951Z,2.70
2019-02-09T12:02:20.615Z,2.80
2019-02-09T12:04:47.258Z,2.77
2019-02-09T12:07:13.870Z,3.73
2019-02-09T12:09:40.651Z,3.33
2019-02-09T12:12:07.302Z,3.27
2019-02-09T12:14:34.015Z,3.00
2019-02-09T12:17:00.656Z,3.43
2019-02-09T12:19:27.117Z,3.00
2019-02-09T12:21:53.715Z,3.03
2019-02-09T12:24:20.263Z,3.27
2019-02-09T12:26:47.016Z,3.70
2019-02-09T12:29:13.667Z,3.17
2019-02-09T12:31:40.209Z,3.50
2019-02-09T12:34:06.867Z,3.37
2019-02-09T12:36:33.464Z,3.00
2019-02-09T12:39:00.163Z,3.40
2019-02-09T12:41:26.761Z,3.23
2019-02-09T12:43:53.262Z,9.70
2019-02-09T12:46:20.049Z,3.10
2019-02-09T12:48:46.647Z,3.07
2019-02-09T12:51:13.331Z,3.70
2019-02-09T12:53:39.997Z,3.43
2019-02-09T12:56:06.649Z,3.57
2019-02-09T12:58:33.245Z,3.30
2019-02-09T13:00:59.770Z,3.37
2019-02-09T13:03:31.205Z,3.07
2019-02-09T13:05:55.145Z,3.30
2019-02-09T13:08:21.765Z,3.33
2019-02-09T13:10:48.422Z,2.90
2019-02-09T13:13:15.151Z,3.60
2019-02-09T13:15:41.785Z,2.90
2019-02-09T13:18:08.442Z,3.30
2019-02-09T13:20:35.134Z,2.57
2019-02-09T13:23:03.817Z,2.70
2019-02-09T13:25:30.331Z,6.63
2019-02-09T13:27:57.006Z,2.60
2019-02-09T13:30:29.858Z,3.03
2019-02-09T13:32:56.581Z,3.37
2019-02-09T13:35:23.239Z,3.20
2019-02-09T13:37:50.325Z,3.13
2019-02-09T13:40:22.465Z,3.37
2019-02-09T13:42:49.171Z,3.73
2019-02-09T13:45:28.777Z,3.37
2019-02-09T13:47:55.413Z,3.10
2019-02-09T13:50:22.346Z,3.80
2019-02-09T13:52:49.162Z,3.77
2019-02-09T13:55:16.041Z,3.70
2019-02-09T13:57:42.764Z,3.57
2019-02-09T14:00:25.796Z,3.07
2019-02-09T14:02:54.481Z,3.13
2019-02-09T14:05:21.044Z,3.50
2019-02-09T14:07:48.049Z,3.67
2019-02-09T14:10:23.857Z,3.60
2019-02-09T14:12:50.779Z,3.87
2019-02-09T14:15:27.729Z,4.00
2019-02-09T14:17:55.357Z,3.57
2019-02-09T14:20:22.249Z,2.97
2019-02-09T14:22:48.970Z,3.10
2019-02-09T14:25:18.030Z,2.90
2019-02-09T14:27:45.504Z,2.77
2019-02-09T14:30:23.198Z,3.07
2019-02-09T14:32:50.289Z,2.97
2019-02-09T14:35:17.126Z,2.37
2019-02-09T14:37:44.093Z,2.77
2019-02-09T14:40:15.493Z,2.60
2019-02-09T14:42:42.161Z,2.90
2019-02-09T14:45:19.750Z,3.03
2019-02-09T14:47:46.347Z,2.57
2019-02-09T14:50:15.623Z,2.80
2019-02-09T14:52:42.339Z,2.07
2019-02-09T14:55:19.677Z,1.80
2019-02-09T14:57:46.439Z,1.70
2019-02-09T15:00:30.084Z,1.77
2019-02-09T15:02:56.773Z,1.63
2019-02-09T15:05:23.987Z,2.43
2019-02-09T15:07:50.851Z,1.70
2019-02-09T15:10:19.684Z,1.60
2019-02-09T15:12:46.583Z,2.03
2019-02-09T15:15:18.306Z,1.90
2019-02-09T15:17:45.108Z,2.27
2019-02-09T15:20:19.176Z,2.27
2019-02-09T15:22:46.035Z,1.80
2019-02-09T15:25:13.736Z,1.77
2019-02-09T15:27:40.431Z,2.30
2019-02-09T15:30:21.169Z,2.40
2019-02-09T15:32:48.047Z,2.27
2019-02-09T15:35:15.727Z,2.30
2019-02-09T15:37:42.502Z,2.93
2019-02-09T15:40:14.196Z,2.50
2019-02-09T15:42:40.884Z,2.47
2019-02-09T15:45:14.613Z,2.70
2019-02-09T15:47:41.366Z,2.50
2019-02-09T15:50:11.983Z,2.80
2019-02-09T15:52:38.955Z,2.70
2019-02-09T15:55:17.083Z,3.17
2019-02-09T15:57:44.123Z,2.57
2019-02-09T16:00:21.517Z,2.80
2019-02-09T16:02:55.816Z,3.27
2019-02-09T16:05:22.643Z,2.80
2019-02-09T16:07:49.353Z,3.07
2019-02-09T16:10:19.884Z,3.17
2019-02-09T16:12:46.652Z,4.13
2019-02-09T16:15:30.204Z,2.77
2019-02-09T16:17:56.966Z,3.70
2019-02-09T16:20:33.763Z,2.67
2019-02-09T16:23:00.457Z,3.07
2019-02-09T16:25:27.734Z,3.43
2019-02-09T16:27:54.416Z,3.50
2019-02-09T16:30:24.417Z,3.47
2019-02-09T16:32:51.236Z,3.17
2019-02-09T16:35:20.749Z,4.20
2019-02-09T16:37:48.037Z,4.23
2019-02-09T16:40:25.093Z,3.03
2019-02-09T16:42:51.997Z,3.40
2019-02-09T16:45:22.523Z,3.17
2019-02-09T16:47:49.300Z,3.00
2019-02-09T16:50:19.341Z,3.37
2019-02-09T16:52:46.125Z,3.37
2019-02-09T16:55:19.646Z,2.60
2019-02-09T16:57:47.430Z,3.00
2019-02-09T17:00:30.782Z,3.73
2019-02-09T17:02:58.011Z,3.30
2019-02-09T17:05:24.966Z,3.17
2019-02-09T17:07:52.518Z,2.97
2019-02-09T17:10:20.005Z,5.93
2019-02-09T17:12:46.665Z,4.17
2019-02-09T17:15:21.048Z,3.20
2019-02-09T17:17:47.984Z,3.67
2019-02-09T17:20:15.427Z,3.13
2019-02-09T17:22:42.078Z,3.50
2019-02-09T17:25:15.557Z,2.90
2019-02-09T17:27:42.497Z,3.43
2019-02-09T17:30:14.666Z,3.27
2019-02-09T17:32:41.641Z,3.20
2019-02-09T17:35:10.271Z,2.80
2019-02-09T17:37:36.931Z,2.50
2019-02-09T17:40:14.126Z,2.30
2019-02-09T17:42:40.969Z,2.57
2019-02-09T17:45:21.341Z,2.30
2019-02-09T17:47:48.023Z,2.70
2019-02-09T17:50:15.089Z,2.47
2019-02-09T17:52:41.889Z,3.20
2019-02-09T17:55:16.696Z,2.33
2019-02-09T17:57:43.331Z,2.93
2019-02-09T18:00:39.707Z,2.60
2019-02-09T18:03:06.384Z,3.07
2019-02-09T18:05:34.705Z,3.43
2019-02-09T18:08:01.555Z,2.90
2019-02-09T18:10:28.172Z,2.90
2019-02-09T18:12:54.793Z,2.80
2019-02-09T18:15:21.456Z,2.87
2019-02-09T18:17:48.001Z,3.17
2019-02-09T18:20:18.042Z,3.10
2019-02-09T18:22:44.742Z,2.97
2019-02-09T18:25:15.367Z,3.20
2019-02-09T18:27:41.981Z,3.30
2019-02-09T18:30:14.098Z,3.23
2019-02-09T18:32:41.088Z,3.20
2019-02-09T18:35:08.978Z,2.87
2019-02-09T18:37:37.009Z,2.97
2019-02-09T18:40:17.724Z,3.17
2019-02-09T18:42:44.489Z,2.80
2019-02-09T18:45:16.276Z,2.97
2019-02-09T18:47:42.907Z,3.10
2019-02-09T18:50:14.074Z,2.57
2019-02-09T18:52:40.669Z,2.97
2019-02-09T18:55:15.617Z,3.70
2019-02-09T18:57:43.960Z,2.77
2019-02-09T19:00:15.910Z,3.80
2019-02-09T19:02:42.789Z,3.20
2019-02-09T19:05:12.543Z,3.23
2019-02-09T19:07:39.284Z,3.70
2019-02-09T19:10:19.654Z,3.40
2019-02-09T19:12:47.177Z,3.37
2019-02-09T19:15:17.502Z,3.30
2019-02-09T19:17:45.990Z,3.20
2019-02-09T19:20:21.009Z,3.60
2019-02-09T19:22:47.778Z,3.17
2019-02-09T19:25:20.514Z,3.63
2019-02-09T19:27:47.278Z,3.10
2019-02-09T19:30:20.020Z,3.70
2019-02-09T19:32:47.024Z,2.87
2019-02-09T19:35:14.596Z,2.77
2019-02-09T19:37:41.643Z,3.10
2019-02-09T19:40:21.415Z,2.80
2019-02-09T19:42:49.165Z,3.20
2019-02-09T19:45:23.256Z,2.60
2019-02-09T19:47:50.328Z,2.73
2019-02-09T19:50:17.464Z,3.17
2019-02-09T19:52:44.502Z,3.40
2019-02-09T19:55:15.486Z,3.43
2019-02-09T19:57:42.549Z,3.67
2019-02-09T20:00:20.506Z,3.40
2019-02-09T20:02:47.341Z,3.40
2019-02-09T20:05:19.719Z,3.63
2019-02-09T20:07:42.752Z,3.20
2019-02-09T20:10:18.042Z,3.40
2019-02-09T20:12:45.116Z,4.10
2019-02-09T20:15:13.637Z,3.63
2019-02-09T20:17:40.457Z,3.17
2019-02-09T20:20:14.983Z,3.10
2019-02-09T20:22:41.663Z,3.40
2019-02-09T20:25:15.458Z,3.13
2019-02-09T20:27:42.425Z,3.80
2019-02-09T20:30:17.437Z,3.03
2019-02-09T20:32:44.053Z,3.60
2019-02-09T20:35:14.692Z,3.10
2019-02-09T20:37:41.769Z,2.90
2019-02-09T20:40:25.742Z,3.50
2019-02-09T20:42:52.561Z,3.17
2019-02-09T20:45:19.540Z,3.50
2019-02-09T20:47:48.687Z,2.70
2019-02-09T20:50:22.483Z,3.27
2019-02-09T20:52:50.316Z,3.80
2019-02-09T20:55:18.843Z,2.57
2019-02-09T20:57:45.559Z,3.50
2019-02-09T21:00:20.532Z,3.20
2019-02-09T21:02:47.224Z,3.67
2019-02-09T21:05:14.816Z,3.10
2019-02-09T21:07:44.774Z,3.20
2019-02-09T21:10:22.249Z,3.53
2019-02-09T21:12:48.898Z,3.17
2019-02-09T21:15:19.637Z,3.50
2019-02-09T21:17:46.307Z,3.57
2019-02-09T21:20:14.250Z,3.43
2019-02-09T21:22:40.897Z,3.93
2019-02-09T21:25:18.558Z,3.27
2019-02-09T21:27:45.280Z,3.60
2019-02-09T21:30:16.739Z,3.67
2019-02-09T21:32:43.407Z,3.80
2019-02-09T21:35:13.054Z,3.33
2019-02-09T21:37:39.702Z,3.40
2019-02-09T21:40:17.804Z,3.57
2019-02-09T21:42:44.793Z,3.70
2019-02-09T21:45:17.676Z,3.63
2019-02-09T21:47:45.142Z,4.03
2019-02-09T21:50:18.917Z,3.73
2019-02-09T21:52:45.471Z,4.63
2019-02-09T21:55:16.504Z,3.63
2019-02-09T21:57:43.206Z,3.60
2019-02-09T22:00:30.577Z,3.73
2019-02-09T22:02:57.602Z,3.50
2019-02-09T22:05:24.398Z,3.90
2019-02-09T22:07:51.168Z,3.37
2019-02-09T22:10:29.049Z,3.77
2019-02-09T22:12:50.475Z,3.40
2019-02-09T22:15:20.594Z,3.77
2019-02-09T22:17:47.348Z,4.07
2019-02-09T22:20:16.933Z,3.77
2019-02-09T22:22:43.591Z,4.03
2019-02-09T22:25:14.468Z,3.30
2019-02-09T22:27:41.827Z,3.37
2019-02-09T22:30:23.601Z,3.57
2019-02-09T22:32:50.409Z,3.83
2019-02-09T22:35:17.536Z,4.00
2019-02-09T22:37:44.313Z,3.37
2019-02-09T22:40:28.139Z,3.33
2019-02-09T22:42:54.794Z,4.53
2019-02-09T22:45:23.563Z,4.10
2019-02-09T22:47:51.911Z,3.60
2019-02-09T22:50:26.197Z,3.53
2019-02-09T22:52:53.533Z,3.13
2019-02-09T22:55:21.726Z,3.80
2019-02-09T22:57:48.707Z,3.63
2019-02-09T23:00:33.694Z,4.10
2019-02-09T23:03:00.433Z,3.83
2019-02-09T23:05:50.792Z,3.50
2019-02-09T23:08:17.575Z,4.23
2019-02-09T23:10:44.367Z,4.30
2019-02-09T23:13:11.046Z,3.87
2019-02-09T23:15:37.601Z,4.53
2019-02-09T23:18:04.385Z,4.90
2019-02-09T23:20:30.911Z,3.87
2019-02-09T23:22:57.613Z,5.03
2019-02-09T23:25:24.298Z,4.00
2019-02-09T23:27:50.727Z,3.83
2019-02-09T23:30:17.363Z,4.40
2019-02-09T23:32:46.066Z,3.60
2019-02-09T23:35:12.582Z,4.20
2019-02-09T23:37:39.329Z,4.50
2019-02-09T23:40:06.853Z,3.90
2019-02-09T23:42:33.366Z,4.37
2019-02-09T23:45:00.281Z,3.70
2019-02-09T23:47:27.138Z,3.80
2019-02-09T23:49:54.545Z,4.03
2019-02-09T23:52:21.166Z,3.73
2019-02-09T23:54:48.042Z,4.00
2019-02-09T23:57:14.632Z,3.70
2019-02-09T23:59:41.026Z,4.00
